Terminal Aerodrome Forecast
Issued by NWS Topeka, KS

Home | Current Version | Previous Version | Text Only | Print | Product List | Glossary Off
Versions: 1 2 3 4 5 6 7 8 9 10 11 12 13 14 15 16 17

000
FTUS43 KTOP 280500
TAFTOP
TAF
KTOP 280528Z 2806/2906 12006KT P6SM FEW250
     FM281400 17009KT P6SM FEW250
     FM281700 20015G22KT P6SM SCT250
     FM282200 24010KT P6SM FEW250
     FM290100 27009KT P6SM FEW250
     FM290400 32013KT P6SM FEW030=

USA.gov is the U.S. government's official web portal to all federal, state and local government web resources and services.